sensor_id;sensor_type;location;lat;lon;timestamp;pressure;altitude;pressure_sealevel;temperature;humidity
76052;BME280;64751;48.708;9.710;2023-04-01T00:02:01;96310.78;;;8.91;72.70
76052;BME280;64751;48.708;9.710;2023-04-01T00:04:29;96306.00;;;8.93;73.07
76052;BME280;64751;48.708;9.710;2023-04-01T00:06:56;96305.53;;;8.91;72.07
76052;BME280;64751;48.708;9.710;2023-04-01T00:09:24;96316.84;;;8.91;71.89
76052;BME280;64751;48.708;9.710;2023-04-01T00:11:53;96306.78;;;8.93;72.62
76052;BME280;64751;48.708;9.710;2023-04-01T00:14:20;96303.09;;;8.94;73.51
76052;BME280;64751;48.708;9.710;2023-04-01T00:16:48;96300.16;;;8.96;72.97
76052;BME280;64751;48.708;9.710;2023-04-01T00:19:16;96307.75;;;8.97;72.33
76052;BME280;64751;48.708;9.710;2023-04-01T00:21:43;96306.47;;;8.95;73.59
76052;BME280;64751;48.708;9.710;2023-04-01T00:24:11;96303.38;;;8.93;73.13
76052;BME280;64751;48.708;9.710;2023-04-01T00:26:38;96320.25;;;8.92;72.03
76052;BME280;64751;48.708;9.710;2023-04-01T00:29:09;96289.72;;;8.91;71.80
76052;BME280;64751;48.708;9.710;2023-04-01T00:31:37;96302.88;;;8.91;72.76
76052;BME280;64751;48.708;9.710;2023-04-01T00:34:05;96285.16;;;8.83;72.60
76052;BME280;64751;48.708;9.710;2023-04-01T00:36:32;96300.75;;;8.93;72.49
76052;BME280;64751;48.708;9.710;2023-04-01T00:39:00;96284.78;;;8.89;71.34
76052;BME280;64751;48.708;9.710;2023-04-01T00:41:27;96298.72;;;8.90;72.17
76052;BME280;64751;48.708;9.710;2023-04-01T00:44:18;96292.97;;;8.88;71.75
76052;BME280;64751;48.708;9.710;2023-04-01T00:46:46;96292.97;;;8.88;72.36
76052;BME280;64751;48.708;9.710;2023-04-01T00:49:15;96301.94;;;8.87;72.02
76052;BME280;64751;48.708;9.710;2023-04-01T00:51:45;96287.50;;;8.84;70.00
76052;BME280;64751;48.708;9.710;2023-04-01T00:54:15;96297.25;;;8.84;71.44
76052;BME280;64751;48.708;9.710;2023-04-01T00:56:46;96297.25;;;8.84;70.85
76052;BME280;64751;48.708;9.710;2023-04-01T00:59:21;96293.34;;;8.81;71.33
76052;BME280;64751;48.708;9.710;2023-04-01T01:01:50;96297.84;;;8.81;72.17
76052;BME280;64751;48.708;9.710;2023-04-01T01:04:22;96276.91;;;8.75;70.68
76052;BME280;64751;48.708;9.710;2023-04-01T01:06:56;96298.44;;;8.77;71.79
76052;BME280;64751;48.708;9.710;2023-04-01T01:09:41;96294.53;;;8.75;71.85
76052;BME280;64751;48.708;9.710;2023-04-01T01:12:14;96296.84;;;8.76;72.12
76052;BME280;64751;48.708;9.710;2023-04-01T01:15:00;96281.06;;;8.76;71.79
76052;BME280;64751;48.708;9.710;2023-04-01T01:17:33;96284.69;;;8.81;71.36
76052;BME280;64751;48.708;9.710;2023-04-01T01:20:42;96292.75;;;8.84;71.87
76052;BME280;64751;48.708;9.710;2023-04-01T01:23:43;96283.31;;;8.83;71.56
76052;BME280;64751;48.708;9.710;2023-04-01T01:26:44;96282.53;;;8.83;71.50
76052;BME280;64751;48.708;9.710;2023-04-01T01:29:26;96295.41;;;8.84;71.30
76052;BME280;64751;48.708;9.710;2023-04-01T01:32:02;96289.34;;;8.84;71.67
76052;BME280;64751;48.708;9.710;2023-04-01T01:34:36;96275.53;;;8.78;72.51
76052;BME280;64751;48.708;9.710;2023-04-01T01:37:11;96292.28;;;8.82;72.90
76052;BME280;64751;48.708;9.710;2023-04-01T01:39:43;96301.25;;;8.81;73.15
76052;BME280;64751;48.708;9.710;2023-04-01T01:42:15;96296.84;;;8.76;72.79
76052;BME280;64751;48.708;9.710;2023-04-01T01:44:47;96282.94;;;8.76;73.93
76052;BME280;64751;48.708;9.710;2023-04-01T01:47:17;96278.56;;;8.71;73.94
76052;BME280;64751;48.708;9.710;2023-04-01T01:49:46;96283.13;;;8.66;73.02
76052;BME280;64751;48.708;9.710;2023-04-01T01:52:16;96294.75;;;8.65;74.15
76052;BME280;64751;48.708;9.710;2023-04-01T01:54:48;96295.63;;;8.60;74.34
76052;BME280;64751;48.708;9.710;2023-04-01T01:57:18;96292.53;;;8.58;75.27
76052;BME280;64751;48.708;9.710;2023-04-01T01:59:52;96289.38;;;8.56;73.99
76052;BME280;64751;48.708;9.710;2023-04-01T02:02:26;96287.63;;;8.52;74.68
76052;BME280;64751;48.708;9.710;2023-04-01T02:04:57;96286.38;;;8.49;75.70
76052;BME280;64751;48.708;9.710;2023-04-01T02:07:31;96281.13;;;8.49;74.32
76052;BME280;64751;48.708;9.710;2023-04-01T02:10:00;96286.38;;;8.49;73.96
76052;BME280;64751;48.708;9.710;2023-04-01T02:12:28;96297.88;;;8.53;74.48
76052;BME280;64751;48.708;9.710;2023-04-01T02:15:01;96299.41;;;8.54;74.36
76052;BME280;64751;48.708;9.710;2023-04-01T02:17:32;96292.31;;;8.55;74.29
76052;BME280;64751;48.708;9.710;2023-04-01T02:20:03;96299.81;;;8.48;73.23
76052;BME280;64751;48.708;9.710;2023-04-01T02:22:35;96305.69;;;8.45;74.69
76052;BME280;64751;48.708;9.710;2023-04-01T02:25:07;96299.41;;;8.41;75.04
76052;BME280;64751;48.708;9.710;2023-04-01T02:27:35;96297.09;;;8.39;74.53
76052;BME280;64751;48.708;9.710;2023-04-01T02:30:03;96301.56;;;8.39;75.23
76052;BME280;64751;48.708;9.710;2023-04-01T02:32:33;96302.94;;;8.36;73.98
76052;BME280;64751;48.708;9.710;2023-04-01T02:35:05;96309.28;;;8.35;74.10
76052;BME280;64751;48.708;9.710;2023-04-01T02:37:35;96306.66;;;8.35;74.41
76052;BME280;64751;48.708;9.710;2023-04-01T02:40:03;96316.88;;;8.37;74.28
76052;BME280;64751;48.708;9.710;2023-04-01T02:42:32;96307.44;;;8.36;75.35
76052;BME280;64751;48.708;9.710;2023-04-01T02:45:00;96304.59;;;8.32;73.83
76052;BME280;64751;48.708;9.710;2023-04-01T02:47:28;96303.91;;;8.27;72.77
76052;BME280;64751;48.708;9.710;2023-04-01T02:49:55;96309.34;;;8.30;73.93
76052;BME280;64751;48.708;9.710;2023-04-01T02:52:25;96304.66;;;8.27;74.67
76052;BME280;64751;48.708;9.710;2023-04-01T02:54:54;96316.75;;;8.28;73.98
76052;BME280;64751;48.708;9.710;2023-04-01T02:57:21;96308.38;;;8.26;74.31
76052;BME280;64751;48.708;9.710;2023-04-01T02:59:49;96314.13;;;8.28;74.37
76052;BME280;64751;48.708;9.710;2023-04-01T03:02:16;96320.44;;;8.27;74.35
76052;BME280;64751;48.708;9.710;2023-04-01T03:04:44;96319.88;;;8.30;74.44
76052;BME280;64751;48.708;9.710;2023-04-01T03:07:11;96311.50;;;8.28;72.98
76052;BME280;64751;48.708;9.710;2023-04-01T03:09:39;96317.72;;;8.32;73.84
76052;BME280;64751;48.708;9.710;2023-04-01T03:12:08;96316.94;;;8.32;73.52
76052;BME280;64751;48.708;9.710;2023-04-01T03:14:46;96313.34;;;8.28;73.68
76052;BME280;64751;48.708;9.710;2023-04-01T03:17:13;96305.31;;;8.19;72.99
76052;BME280;64751;48.708;9.710;2023-04-01T03:19:41;96316.03;;;8.09;73.13
76052;BME280;64751;48.708;9.710;2023-04-01T03:22:10;96314.97;;;8.10;73.64
76052;BME280;64751;48.708;9.710;2023-04-01T03:24:38;96308.44;;;8.07;73.42
76052;BME280;64751;48.708;9.710;2023-04-01T03:27:05;96304.81;;;8.03;74.10
76052;BME280;64751;48.708;9.710;2023-04-01T03:29:34;96310.84;;;7.90;73.21
76052;BME280;64751;48.708;9.710;2023-04-01T03:32:02;96308.88;;;7.96;74.90
76052;BME280;64751;48.708;9.710;2023-04-01T03:34:29;96312.78;;;7.98;74.00
76052;BME280;64751;48.708;9.710;2023-04-01T03:36:58;96314.38;;;7.99;74.31
76052;BME280;64751;48.708;9.710;2023-04-01T03:39:25;96312.53;;;8.00;74.23
76052;BME280;64751;48.708;9.710;2023-04-01T03:41:53;96312.00;;;7.98;73.63
76052;BME280;64751;48.708;9.710;2023-04-01T03:44:20;96314.63;;;7.98;72.77
76052;BME280;64751;48.708;9.710;2023-04-01T03:46:52;96318.84;;;7.99;73.62
76052;BME280;64751;48.708;9.710;2023-04-01T03:49:20;96325.84;;;8.03;74.16
76052;BME280;64751;48.708;9.710;2023-04-01T03:51:47;96316.69;;;8.01;73.29
76052;BME280;64751;48.708;9.710;2023-04-01T03:54:15;96318.91;;;7.94;73.29
76052;BME280;64751;48.708;9.710;2023-04-01T03:56:43;96318.44;;;7.92;72.55
76052;BME280;64751;48.708;9.710;2023-04-01T03:59:11;96314.75;;;7.93;72.80
76052;BME280;64751;48.708;9.710;2023-04-01T04:01:40;96309.19;;;7.94;72.93
76052;BME280;64751;48.708;9.710;2023-04-01T04:04:10;96320.50;;;7.95;73.28
76052;BME280;64751;48.708;9.710;2023-04-01T04:06:39;96323.59;;;7.97;71.99
76052;BME280;64751;48.708;9.710;2023-04-01T04:09:06;96320.41;;;8.00;72.36
76052;BME280;64751;48.708;9.710;2023-04-01T04:11:34;96315.63;;;8.02;72.24
76052;BME280;64751;48.708;9.710;2023-04-01T04:14:02;96317.47;;;8.01;71.96
76052;BME280;64751;48.708;9.710;2023-04-01T04:16:29;96319.53;;;8.04;72.64
76052;BME280;64751;48.708;9.710;2023-04-01T04:19:00;96317.66;;;8.05;72.57
76052;BME280;64751;48.708;9.710;2023-04-01T04:21:29;96322.34;;;8.08;72.75
76052;BME280;64751;48.708;9.710;2023-04-01T04:23:58;96329.19;;;8.09;72.85
76052;BME280;64751;48.708;9.710;2023-04-01T04:26:26;96317.88;;;8.09;72.94
76052;BME280;64751;48.708;9.710;2023-04-01T04:28:59;96321.38;;;8.04;72.35
76052;BME280;64751;48.708;9.710;2023-04-01T04:31:26;96315.63;;;8.02;72.80
76052;BME280;64751;48.708;9.710;2023-04-01T04:33:58;96319.81;;;8.03;73.03
76052;BME280;64751;48.708;9.710;2023-04-01T04:36:26;96311.94;;;8.03;72.54
76052;BME280;64751;48.708;9.710;2023-04-01T04:38:56;96312.22;;;8.01;72.41
76052;BME280;64751;48.708;9.710;2023-04-01T04:41:24;96306.56;;;7.94;72.41
76052;BME280;64751;48.708;9.710;2023-04-01T04:43:54;96306.38;;;7.91;73.95
76052;BME280;64751;48.708;9.710;2023-04-01T04:46:23;96307.44;;;7.90;73.27
76052;BME280;64751;48.708;9.710;2023-04-01T04:48:56;96309.28;;;7.89;72.81
76052;BME280;64751;48.708;9.710;2023-04-01T04:51:23;96299.06;;;7.88;72.95
76052;BME280;64751;48.708;9.710;2023-04-01T04:53:51;96283.28;;;7.88;71.66
76052;BME280;64751;48.708;9.710;2023-04-01T04:56:23;96289.03;;;7.90;73.36
76052;BME280;64751;48.708;9.710;2023-04-01T04:59:03;96293.72;;;7.93;72.35
76052;BME280;64751;48.708;9.710;2023-04-01T05:01:40;96287.84;;;7.96;72.75
76052;BME280;64751;48.708;9.710;2023-04-01T05:04:08;96299.38;;;8.00;73.18
76052;BME280;64751;48.708;9.710;2023-04-01T05:06:35;96295.88;;;8.04;71.76
76052;BME280;64751;48.708;9.710;2023-04-01T05:09:04;96284.56;;;8.04;72.40
76052;BME280;64751;48.708;9.710;2023-04-01T05:11:32;96297.72;;;8.04;72.07
76052;BME280;64751;48.708;9.710;2023-04-01T05:14:00;96289.06;;;8.03;72.07
76052;BME280;64751;48.708;9.710;2023-04-01T05:16:30;96289.22;;;8.07;72.10
76052;BME280;64751;48.708;9.710;2023-04-01T05:18:59;96299.19;;;8.10;72.69
76052;BME280;64751;48.708;9.710;2023-04-01T05:21:26;96272.09;;;7.96;72.53
76052;BME280;64751;48.708;9.710;2023-04-01T05:23:56;96296.38;;;8.20;71.18
76052;BME280;64751;48.708;9.710;2023-04-01T05:26:24;96292.47;;;8.18;71.56
76052;BME280;64751;48.708;9.710;2023-04-01T05:28:54;96308.44;;;8.21;71.02
76052;BME280;64751;48.708;9.710;2023-04-01T05:31:21;96300.56;;;8.21;71.72
76052;BME280;64751;48.708;9.710;2023-04-01T05:33:50;96301.53;;;8.25;71.08
76052;BME280;64751;48.708;9.710;2023-04-01T05:36:20;96295.41;;;8.30;69.95
76052;BME280;64751;48.708;9.710;2023-04-01T05:38:48;96298.03;;;8.84;71.43
76052;BME280;64751;48.708;9.710;2023-04-01T05:41:17;96298.81;;;8.85;70.24
76052;BME280;64751;48.708;9.710;2023-04-01T05:43:46;96295.88;;;8.86;67.87
76052;BME280;64751;48.708;9.710;2023-04-01T05:46:53;96298.03;;;8.70;69.72
76052;BME280;64751;48.708;9.710;2023-04-01T05:49:22;96303.72;;;8.64;68.94
76052;BME280;64751;48.708;9.710;2023-04-01T05:51:51;96289.28;;;8.61;69.89
76052;BME280;64751;48.708;9.710;2023-04-01T05:54:18;96292.22;;;8.60;69.32
76052;BME280;64751;48.708;9.710;2023-04-01T05:56:46;96288.31;;;8.57;68.54
76052;BME280;64751;48.708;9.710;2023-04-01T05:59:14;96295.72;;;8.55;68.13
76052;BME280;64751;48.708;9.710;2023-04-01T06:01:41;96299.63;;;8.58;69.16
76052;BME280;64751;48.708;9.710;2023-04-01T06:04:13;96288.31;;;8.57;68.49
76052;BME280;64751;48.708;9.710;2023-04-01T06:06:42;96293.00;;;8.60;68.48
76052;BME280;64751;48.708;9.710;2023-04-01T06:09:15;96294.53;;;8.61;67.81
76052;BME280;64751;48.708;9.710;2023-04-01T06:11:57;96293.97;;;8.64;67.74
76052;BME280;64751;48.708;9.710;2023-04-01T06:14:35;96284.00;;;8.75;68.85
76052;BME280;64751;48.708;9.710;2023-04-01T06:17:21;96292.66;;;8.89;69.08
76052;BME280;64751;48.708;9.710;2023-04-01T06:19:58;96283.16;;;9.02;67.40
76052;BME280;64751;48.708;9.710;2023-04-01T06:22:49;96281.00;;;9.04;67.60
76052;BME280;64751;48.708;9.710;2023-04-01T06:25:36;96288.44;;;9.02;65.83
76052;BME280;64751;48.708;9.710;2023-04-01T06:28:28;96259.41;;;8.93;67.29
76052;BME280;64751;48.708;9.710;2023-04-01T06:31:04;96276.78;;;8.94;65.95
76052;BME280;64751;48.708;9.710;2023-04-01T06:33:52;96267.88;;;8.90;66.24
76052;BME280;64751;48.708;9.710;2023-04-01T06:36:46;96273.06;;;8.82;66.08
76052;BME280;64751;48.708;9.710;2023-04-01T06:39:31;96263.22;;;8.87;66.90
76052;BME280;64751;48.708;9.710;2023-04-01T06:42:13;96263.09;;;8.92;67.17
76052;BME280;64751;48.708;9.710;2023-04-01T06:44:53;96260.97;;;8.94;66.17
76052;BME280;64751;48.708;9.710;2023-04-01T06:47:54;96261.13;;;8.98;66.53
76052;BME280;64751;48.708;9.710;2023-04-01T06:50:52;96269.72;;;9.03;67.29
76052;BME280;64751;48.708;9.710;2023-04-01T06:53:49;96265.09;;;9.09;66.26
76052;BME280;64751;48.708;9.710;2023-04-01T06:56:42;96279.22;;;9.13;65.71
76052;BME280;64751;48.708;9.710;2023-04-01T06:59:25;96259.72;;;9.14;66.37
76052;BME280;64751;48.708;9.710;2023-04-01T07:01:56;96271.19;;;9.31;67.31
76052;BME280;64751;48.708;9.710;2023-04-01T07:04:28;96268.59;;;9.40;65.77
76052;BME280;64751;48.708;9.710;2023-04-01T07:06:59;96271.13;;;9.45;66.94
76052;BME280;64751;48.708;9.710;2023-04-01T07:09:32;96264.38;;;9.53;65.94
76052;BME280;64751;48.708;9.710;2023-04-01T07:12:22;96281.19;;;9.65;65.21
76052;BME280;64751;48.708;9.710;2023-04-01T07:15:18;96263.03;;;9.64;63.87
76052;BME280;64751;48.708;9.710;2023-04-01T07:17:51;96266.78;;;9.71;65.22
76052;BME280;64751;48.708;9.710;2023-04-01T07:20:23;96260.09;;;9.65;65.02
76052;BME280;64751;48.708;9.710;2023-04-01T07:22:56;96258.53;;;9.64;62.56
76052;BME280;64751;48.708;9.710;2023-04-01T07:25:42;96262.53;;;9.62;63.58
76052;BME280;64751;48.708;9.710;2023-04-01T07:28:33;96263.63;;;9.61;64.95
76052;BME280;64751;48.708;9.710;2023-04-01T07:31:41;96263.03;;;9.64;65.19
76052;BME280;64751;48.708;9.710;2023-04-01T07:34:18;96261.47;;;9.63;63.46
76052;BME280;64751;48.708;9.710;2023-04-01T07:36:48;96264.78;;;9.68;65.22
76052;BME280;64751;48.708;9.710;2023-04-01T07:39:28;96266.78;;;9.71;64.72
76052;BME280;64751;48.708;9.710;2023-04-01T07:42:22;96266.19;;;9.74;64.92
76052;BME280;64751;48.708;9.710;2023-04-01T07:44:58;96267.63;;;9.80;64.46
76052;BME280;64751;48.708;9.710;2023-04-01T07:47:40;96268.22;;;9.77;64.71
76052;BME280;64751;48.708;9.710;2023-04-01T07:50:14;96266.41;;;9.86;64.80
76052;BME280;64751;48.708;9.710;2023-04-01T07:52:57;96258.00;;;9.84;63.86
76052;BME280;64751;48.708;9.710;2023-04-01T07:55:31;96259.16;;;9.92;63.24
76052;BME280;64751;48.708;9.710;2023-04-01T07:58:10;96262.91;;;9.99;64.34
76052;BME280;64751;48.708;9.710;2023-04-01T08:00:49;96254.03;;;9.95;63.88
76052;BME280;64751;48.708;9.710;2023-04-01T08:03:36;96259.66;;;10.02;63.14
76052;BME280;64751;48.708;9.710;2023-04-01T08:06:12;96263.06;;;10.03;63.94
76052;BME280;64751;48.708;9.710;2023-04-01T08:08:51;96274.22;;;10.00;63.94
76052;BME280;64751;48.708;9.710;2023-04-01T08:11:54;96271.75;;;9.95;62.98
76052;BME280;64751;48.708;9.710;2023-04-01T08:14:52;96265.69;;;9.94;63.59
76052;BME280;64751;48.708;9.710;2023-04-01T08:17:40;96267.72;;;9.97;63.12
76052;BME280;64751;48.708;9.710;2023-04-01T08:20:14;96269.84;;;9.95;63.26
76052;BME280;64751;48.708;9.710;2023-04-01T08:22:49;96271.13;;;9.98;63.99
76052;BME280;64751;48.708;9.710;2023-04-01T08:25:31;96276.84;;;10.00;63.39
76052;BME280;64751;48.708;9.710;2023-04-01T08:28:09;96275.31;;;9.99;62.87
76052;BME280;64751;48.708;9.710;2023-04-01T08:30:43;96267.72;;;9.97;62.40
76052;BME280;64751;48.708;9.710;2023-04-01T08:33:16;96269.84;;;9.95;63.21
76052;BME280;64751;48.708;9.710;2023-04-01T08:35:51;96278.38;;;9.92;63.71
76052;BME280;64751;48.708;9.710;2023-04-01T08:38:23;96263.94;;;9.90;63.76
76052;BME280;64751;48.708;9.710;2023-04-01T08:40:59;96283.78;;;9.87;63.95
76052;BME280;64751;48.708;9.710;2023-04-01T08:44:14;96277.44;;;9.88;63.36
76052;BME280;64751;48.708;9.710;2023-04-01T08:47:21;96279.41;;;9.83;63.65
76052;BME280;64751;48.708;9.710;2023-04-01T08:50:05;96283.63;;;9.84;64.08
76052;BME280;64751;48.708;9.710;2023-04-01T08:53:00;96280.00;;;9.80;64.65
76052;BME280;64751;48.708;9.710;2023-04-01T08:55:44;96273.50;;;9.77;64.03
76052;BME280;64751;48.708;9.710;2023-04-01T08:58:30;96277.38;;;9.80;65.27
76052;BME280;64751;48.708;9.710;2023-04-01T09:01:20;96276.63;;;9.79;65.49
76052;BME280;64751;48.708;9.710;2023-04-01T09:04:03;96284.22;;;9.81;65.58
76052;BME280;64751;48.708;9.710;2023-04-01T09:06:39;96288.69;;;9.80;65.88
76052;BME280;64751;48.708;9.710;2023-04-01T09:12:34;96283.16;;;9.82;65.19
76052;BME280;64751;48.708;9.710;2023-04-01T09:18:24;96307.09;;;9.94;65.73
76052;BME280;64751;48.708;9.710;2023-04-01T09:21:21;96283.53;;;9.97;66.48
76052;BME280;64751;48.708;9.710;2023-04-01T09:24:14;96291.13;;;9.99;68.16
76052;BME280;64751;48.708;9.710;2023-04-01T09:27:00;96293.59;;;9.95;69.68
76052;BME280;64751;48.708;9.710;2023-04-01T09:29:49;96301.78;;;9.85;69.76
76052;BME280;64751;48.708;9.710;2023-04-01T09:32:42;96302.66;;;9.81;71.82
76052;BME280;64751;48.708;9.710;2023-04-01T09:35:39;96291.88;;;9.69;72.94
76052;BME280;64751;48.708;9.710;2023-04-01T09:38:20;96301.66;;;9.68;75.31
76052;BME280;64751;48.708;9.710;2023-04-01T09:40:55;96307.75;;;9.55;73.50
76052;BME280;64751;48.708;9.710;2023-04-01T09:44:02;96308.59;;;9.42;75.83
76052;BME280;64751;48.708;9.710;2023-04-01T09:46:56;96291.94;;;9.33;75.80
76052;BME280;64751;48.708;9.710;2023-04-01T09:52:31;96308.47;;;9.25;74.88
76052;BME280;64751;48.708;9.710;2023-04-01T09:55:45;96304.00;;;9.25;75.01
76052;BME280;64751;48.708;9.710;2023-04-01T09:58:43;96317.91;;;9.26;74.69
76052;BME280;64751;48.708;9.710;2023-04-01T10:01:45;96309.91;;;9.31;76.21
76052;BME280;64751;48.708;9.710;2023-04-01T10:04:52;96312.38;;;9.27;73.88
76052;BME280;64751;48.708;9.710;2023-04-01T10:08:00;96315.41;;;9.21;74.45
76052;BME280;64751;48.708;9.710;2023-04-01T10:10:52;96317.44;;;9.24;72.95
76052;BME280;64751;48.708;9.710;2023-04-01T10:13:48;96312.53;;;9.31;75.07
76052;BME280;64751;48.708;9.710;2023-04-01T10:16:53;96323.69;;;9.28;74.20
76052;BME280;64751;48.708;9.710;2023-04-01T10:19:48;96316.47;;;9.20;74.79
76052;BME280;64751;48.708;9.710;2023-04-01T10:25:29;96321.94;;;9.23;77.21
76052;BME280;64751;48.708;9.710;2023-04-01T10:38:41;96324.28;;;9.25;77.78
76052;BME280;64751;48.708;9.710;2023-04-01T10:41:53;96327.56;;;9.30;78.71
76052;BME280;64751;48.708;9.710;2023-04-01T10:45:03;96322.63;;;9.51;78.45
76052;BME280;64751;48.708;9.710;2023-04-01T10:47:56;96332.16;;;9.61;78.85
76052;BME280;64751;48.708;9.710;2023-04-01T10:54:11;96328.97;;;9.50;77.60
76052;BME280;64751;48.708;9.710;2023-04-01T10:57:19;96334.41;;;9.31;77.03
76052;BME280;64751;48.708;9.710;2023-04-01T11:00:52;96321.91;;;9.37;78.68
76052;BME280;64751;48.708;9.710;2023-04-01T11:04:27;96325.88;;;9.48;78.19
76052;BME280;64751;48.708;9.710;2023-04-01T11:11:20;96334.38;;;9.45;77.79
76052;BME280;64751;48.708;9.710;2023-04-01T11:14:18;96336.75;;;9.55;78.75
76052;BME280;64751;48.708;9.710;2023-04-01T11:20:41;96327.84;;;9.65;78.50
76052;BME280;64751;48.708;9.710;2023-04-01T11:23:25;96337.59;;;9.64;76.51
76052;BME280;64751;48.708;9.710;2023-04-01T11:26:02;96335.69;;;9.56;76.86
76052;BME280;64751;48.708;9.710;2023-04-01T11:29:19;96340.78;;;9.53;77.74
76052;BME280;64751;48.708;9.710;2023-04-01T11:31:58;96331.03;;;9.39;77.05
76052;BME280;64751;48.708;9.710;2023-04-01T11:34:42;96341.53;;;9.53;77.77
76052;BME280;64751;48.708;9.710;2023-04-01T11:37:25;96334.13;;;9.55;78.85
76052;BME280;64751;48.708;9.710;2023-04-01T11:40:22;96336.63;;;9.60;77.19
76052;BME280;64751;48.708;9.710;2023-04-01T11:43:20;96337.84;;;9.54;77.31
76052;BME280;64751;48.708;9.710;2023-04-01T11:46:17;96335.84;;;9.60;77.98
76052;BME280;64751;48.708;9.710;2023-04-01T11:49:07;96342.31;;;9.54;78.32
76052;BME280;64751;48.708;9.710;2023-04-01T11:52:13;96342.63;;;9.52;76.39
76052;BME280;64751;48.708;9.710;2023-04-01T11:55:02;96327.41;;;9.49;76.92
76052;BME280;64751;48.708;9.710;2023-04-01T12:00:51;96354.06;;;9.47;78.33
76052;BME280;64751;48.708;9.710;2023-04-01T12:03:42;96351.91;;;9.49;75.29
76052;BME280;64751;48.708;9.710;2023-04-01T12:06:16;96347.44;;;9.50;76.74
76052;BME280;64751;48.708;9.710;2023-04-01T12:08:54;96349.94;;;9.55;77.10
76052;BME280;64751;48.708;9.710;2023-04-01T12:11:33;96356.88;;;9.51;76.25
76052;BME280;64751;48.708;9.710;2023-04-01T12:14:07;96348.38;;;9.54;76.77
76052;BME280;64751;48.708;9.710;2023-04-01T12:16:49;96336.47;;;9.57;77.14
76052;BME280;64751;48.708;9.710;2023-04-01T12:19:28;96340.66;;;9.58;76.63
76052;BME280;64751;48.708;9.710;2023-04-01T12:22:03;96351.25;;;9.66;76.46
76052;BME280;64751;48.708;9.710;2023-04-01T12:24:45;96352.59;;;9.77;77.41
76052;BME280;64751;48.708;9.710;2023-04-01T12:27:46;96361.31;;;9.86;76.04
76052;BME280;64751;48.708;9.710;2023-04-01T12:30:30;96354.88;;;9.92;77.54
76052;BME280;64751;48.708;9.710;2023-04-01T12:33:22;96360.50;;;9.99;76.08
76052;BME280;64751;48.708;9.710;2023-04-01T12:36:00;96362.66;;;9.97;76.51
76052;BME280;64751;48.708;9.710;2023-04-01T12:38:42;96362.66;;;9.97;77.40
76052;BME280;64751;48.708;9.710;2023-04-01T12:41:19;96369.72;;;9.88;77.02
76052;BME280;64751;48.708;9.710;2023-04-01T12:44:12;96366.25;;;9.79;77.49
76052;BME280;64751;48.708;9.710;2023-04-01T12:47:00;96369.06;;;9.83;77.33
76052;BME280;64751;48.708;9.710;2023-04-01T12:49:53;96374.28;;;9.74;77.54
76052;BME280;64751;48.708;9.710;2023-04-01T12:52:32;96361.78;;;9.66;78.33
76052;BME280;64751;48.708;9.710;2023-04-01T12:55:36;96363.88;;;9.56;78.05
76052;BME280;64751;48.708;9.710;2023-04-01T13:07:59;96368.72;;;9.40;77.80
76052;BME280;64751;48.708;9.710;2023-04-01T13:10:41;96374.59;;;9.37;78.02
76052;BME280;64751;48.708;9.710;2023-04-01T13:13:29;96370.88;;;9.38;79.74
76052;BME280;64751;48.708;9.710;2023-04-01T13:16:02;96369.41;;;9.45;79.84
76052;BME280;64751;48.708;9.710;2023-04-01T13:18:39;96370.53;;;9.53;78.52
76052;BME280;64751;48.708;9.710;2023-04-01T13:21:16;96374.22;;;9.66;78.36
76052;BME280;64751;48.708;9.710;2023-04-01T13:23:55;96371.75;;;9.69;78.03
76052;BME280;64751;48.708;9.710;2023-04-01T13:26:33;96377.69;;;9.75;76.83
76052;BME280;64751;48.708;9.710;2023-04-01T13:29:07;96377.75;;;9.83;77.13
76052;BME280;64751;48.708;9.710;2023-04-01T13:31:49;96380.13;;;9.93;77.12
76052;BME280;64751;48.708;9.710;2023-04-01T13:34:35;96375.66;;;9.94;75.56
76052;BME280;64751;48.708;9.710;2023-04-01T13:37:15;96381.22;;;9.92;74.80
76052;BME280;64751;48.708;9.710;2023-04-01T13:39:55;96380.09;;;9.85;75.58
76052;BME280;64751;48.708;9.710;2023-04-01T13:42:26;96376.81;;;9.79;74.19
76052;BME280;64751;48.708;9.710;2023-04-01T13:45:00;96377.97;;;9.73;74.16
76052;BME280;64751;48.708;9.710;2023-04-01T13:48:04;96384.28;;;9.64;72.80
76052;BME280;64751;48.708;9.710;2023-04-01T13:50:52;96378.22;;;9.63;72.87
76052;BME280;64751;48.708;9.710;2023-04-01T13:53:50;96378.41;;;9.67;73.48
76052;BME280;64751;48.708;9.710;2023-04-01T13:56:33;96363.47;;;9.62;73.49
76052;BME280;64751;48.708;9.710;2023-04-01T13:59:24;96384.41;;;9.81;74.66
76052;BME280;64751;48.708;9.710;2023-04-01T14:01:59;96390.56;;;9.76;72.86
76052;BME280;64751;48.708;9.710;2023-04-01T14:04:49;96390.00;;;9.79;73.09
76052;BME280;64751;48.708;9.710;2023-04-01T14:07:35;96390.47;;;9.81;73.59
76052;BME280;64751;48.708;9.710;2023-04-01T14:10:17;96384.25;;;9.77;71.95
76052;BME280;64751;48.708;9.710;2023-04-01T14:12:51;96390.81;;;9.88;72.35
76052;BME280;64751;48.708;9.710;2023-04-01T14:15:35;96380.13;;;9.93;72.33
76052;BME280;64751;48.708;9.710;2023-04-01T14:18:22;96395.72;;;10.03;72.11
76052;BME280;64751;48.708;9.710;2023-04-01T14:21:03;96390.81;;;10.10;71.43
76052;BME280;64751;48.708;9.710;2023-04-01T14:23:46;96396.28;;;10.14;70.33
76052;BME280;64751;48.708;9.710;2023-04-01T14:26:33;96390.00;;;10.01;71.10
76052;BME280;64751;48.708;9.710;2023-04-01T14:29:15;96401.13;;;9.98;71.26
76052;BME280;64751;48.708;9.710;2023-04-01T14:31:57;96391.47;;;9.94;71.77
76052;BME280;64751;48.708;9.710;2023-04-01T14:37:27;96404.34;;;9.95;71.85
76052;BME280;64751;48.708;9.710;2023-04-01T14:40:16;96401.72;;;9.95;72.63
76052;BME280;64751;48.708;9.710;2023-04-01T14:43:06;96396.84;;;9.89;71.40
76052;BME280;64751;48.708;9.710;2023-04-01T14:45:53;96407.97;;;9.99;71.81
76052;BME280;64751;48.708;9.710;2023-04-01T14:48:25;96401.97;;;10.07;70.90
76052;BME280;64751;48.708;9.710;2023-04-01T14:51:02;96407.72;;;10.09;69.49
76052;BME280;64751;48.708;9.710;2023-04-01T14:53:33;96408.69;;;10.13;70.48
76052;BME280;64751;48.708;9.710;2023-04-01T14:56:06;96409.47;;;10.14;69.52
76052;BME280;64751;48.708;9.710;2023-04-01T14:58:43;96406.53;;;10.15;70.89
76052;BME280;64751;48.708;9.710;2023-04-01T15:01:20;96402.75;;;10.08;69.48
76052;BME280;64751;48.708;9.710;2023-04-01T15:03:56;96418.66;;;10.16;69.39